Time;durP1;ratioP1;P1;durP2;ratioP2;P2;SDS_P1;SDS_P2;PMS_P1;PMS_P2;Temp;Humidity;BMP_temperature;BMP_pressure;BME280_temperature;BME280_humidity;BME280_pressure;Samples;Min_cycle;Max_cycle;Signal;HPM_P1;HPM_P2
2022/01/28 00:04:51;;;;;;;41.18;23.60;;;;;;;0.23;100.00;98750.33;1721339;83;21525;-66
2022/01/28 00:07:20;;;;;;;37.17;21.73;;;;;;;0.27;100.00;98749.78;1721013;83;21190;-67
2022/01/28 00:09:49;;;;;;;48.20;23.73;;;;;;;0.27;100.00;98744.36;1721078;83;21005;-66
2022/01/28 00:12:16;;;;;;;44.18;23.40;;;;;;;0.28;100.00;98746.80;1721384;83;20902;-67
2022/01/28 00:15:03;;;;;;;45.23;23.75;;;;;;;0.30;100.00;98742.46;1721000;83;21059;-67
2022/01/28 00:39:18;;;;;;;40.33;21.12;;;;;;;0.37;99.54;98709.12;1721159;83;21499;-68
2022/01/28 00:41:45;;;;;;;39.78;21.37;;;;;;;0.35;99.49;98699.09;1721035;83;22018;-66
2022/01/28 00:44:11;;;;;;;37.35;19.87;;;;;;;0.33;99.46;98700.72;1721107;83;20997;-67
2022/01/28 00:46:38;;;;;;;37.25;20.62;;;;;;;0.34;99.41;98697.48;1721023;83;21080;-67
2022/01/28 00:49:04;;;;;;;36.60;20.95;;;;;;;0.33;99.34;98701.26;1721033;83;20911;-65
2022/01/28 00:51:32;;;;;;;36.53;21.12;;;;;;;0.34;99.32;98696.13;1692676;83;21030;-68
2022/01/28 00:53:59;;;;;;;41.45;22.13;;;;;;;0.35;99.27;98689.61;1721069;83;21415;-67
2022/01/28 00:56:25;;;;;;;35.92;21.00;;;;;;;0.34;99.15;98682.01;1721103;83;20962;-66
2022/01/28 00:58:53;;;;;;;39.63;21.82;;;;;;;0.33;99.17;98675.52;1721139;83;21258;-66
2022/01/28 01:01:20;;;;;;;44.73;22.25;;;;;;;0.33;99.18;98670.09;1692198;83;21075;-68
2022/01/28 01:03:49;;;;;;;38.05;22.15;;;;;;;0.31;99.22;98663.59;1721033;83;20978;-67
2022/01/28 01:06:19;;;;;;;38.95;21.17;;;;;;;0.31;99.23;98660.05;1729135;82;20946;-68
2022/01/28 01:08:48;;;;;;;37.83;21.12;;;;;;;0.32;99.07;98658.98;1738840;82;20965;-67
2022/01/28 01:11:17;;;;;;;52.38;22.98;;;;;;;0.30;98.93;98653.84;1738695;82;21176;-67
2022/01/28 01:13:44;;;;;;;42.30;21.17;;;;;;;0.29;98.84;98653.55;1738783;82;20989;-67
2022/01/28 01:16:13;;;;;;;44.38;21.30;;;;;;;0.29;98.68;98654.12;1738916;82;20973;-67
2022/01/28 01:21:27;;;;;;;38.70;22.15;;;;;;;0.28;98.60;98637.57;1714889;82;21508;-67
2022/01/28 01:23:53;;;;;;;39.27;20.75;;;;;;;0.26;98.61;98633.78;1737918;82;21272;-67
2022/01/28 01:26:27;;;;;;;38.83;21.68;;;;;;;0.27;98.62;98629.18;1738863;82;21017;-68
2022/01/28 01:28:51;;;;;;;39.88;21.85;;;;;;;0.29;98.56;98622.95;1738934;82;21505;-67
2022/01/28 01:31:19;;;;;;;41.02;21.10;;;;;;;0.29;98.56;98618.89;1738920;82;20992;-68
2022/01/28 01:34:01;;;;;;;45.75;22.87;;;;;;;0.29;98.41;98613.47;1738935;82;20874;-68
2022/01/28 01:36:23;;;;;;;38.53;20.75;;;;;;;0.29;98.22;98613.47;1738137;82;21170;-67
2022/01/28 01:38:50;;;;;;;40.92;22.42;;;;;;;0.26;98.14;98604.53;1738874;82;20957;-68
2022/01/28 01:41:26;;;;;;;40.10;22.30;;;;;;;0.23;98.16;98601.28;1739049;82;20966;-67
2022/01/28 01:43:58;;;;;;;39.98;21.62;;;;;;;0.20;98.24;98604.54;1737476;82;20953;-68
2022/01/28 01:54:39;;;;;;;41.53;21.12;;;;;;;0.15;98.66;98580.69;1739361;82;21420;-67
2022/01/28 01:57:08;;;;;;;37.65;21.45;;;;;;;0.15;98.74;98581.52;1739552;82;20907;-67
2022/01/28 01:59:37;;;;;;;41.00;20.40;;;;;;;0.17;98.75;98583.95;1739685;82;20860;-65
2022/01/28 02:02:04;;;;;;;44.05;22.00;;;;;;;0.17;98.82;98580.67;1710750;82;21155;-68
2022/01/28 02:04:31;;;;;;;43.83;21.42;;;;;;;0.16;98.90;98576.35;1739049;82;21027;-67
2022/01/28 02:06:58;;;;;;;37.80;20.60;;;;;;;0.16;99.06;98577.70;1724796;82;20952;-66
2022/01/28 02:09:24;;;;;;;38.95;21.35;;;;;;;0.15;99.18;98573.39;1716170;83;21548;-68
2022/01/28 02:11:52;;;;;;;37.05;21.20;;;;;;;0.15;99.35;98573.39;1716366;83;21471;-67
2022/01/28 02:14:19;;;;;;;41.50;22.42;;;;;;;0.14;99.43;98564.17;1716071;83;21161;-67
2022/01/28 02:16:46;;;;;;;40.63;21.77;;;;;;;0.11;99.56;98568.23;1669698;83;20953;-68
2022/01/28 02:19:15;;;;;;;38.42;21.70;;;;;;;0.09;99.74;98560.37;1716002;83;21060;-67
2022/01/28 02:21:49;;;;;;;40.38;21.93;;;;;;;0.08;99.89;98566.89;1716059;83;21046;-68
2022/01/28 02:24:10;;;;;;;39.65;21.57;;;;;;;0.08;100.00;98566.89;1714287;83;20962;-68
2022/01/28 02:26:38;;;;;;;39.50;21.87;;;;;;;0.10;100.00;98566.62;1716288;83;21142;-67
2022/01/28 02:29:12;;;;;;;41.33;22.22;;;;;;;0.08;100.00;98566.89;1715970;83;20980;-68
2022/01/28 02:31:36;;;;;;;36.13;21.20;;;;;;;0.08;100.00;98560.66;1715909;83;20889;-68
2022/01/28 02:34:05;;;;;;;34.50;20.62;;;;;;;0.08;100.00;98563.36;1716211;83;21036;-67
2022/01/28 02:36:37;;;;;;;39.53;21.97;;;;;;;0.07;100.00;98561.75;1716192;82;21401;-68
2022/01/28 02:39:06;;;;;;;38.55;21.17;;;;;;;0.08;100.00;98556.06;1715932;83;21152;-67
2022/01/28 02:41:37;;;;;;;41.18;20.25;;;;;;;0.09;100.00;98548.72;1716285;83;20932;-68
2022/01/28 02:44:17;;;;;;;42.83;21.23;;;;;;;0.08;100.00;98552.53;1715779;83;21052;-68
2022/01/28 02:46:40;;;;;;;32.67;17.82;;;;;;;0.09;100.00;98548.72;1714996;83;21417;-67
2022/01/28 02:49:10;;;;;;;32.50;19.12;;;;;;;0.08;100.00;98549.28;1715838;83;20988;-65
2022/01/28 02:51:36;;;;;;;33.35;19.15;;;;;;;0.08;100.00;98537.63;1715567;83;21145;-66
2022/01/28 02:54:16;;;;;;;35.65;18.92;;;;;;;0.08;100.00;98540.34;1716079;83;20952;-68
2022/01/28 02:56:50;;;;;;;33.20;19.12;;;;;;;0.08;100.00;98538.45;1716128;83;20892;-68
2022/01/28 02:59:16;;;;;;;31.60;17.30;;;;;;;0.07;100.00;98542.79;1716031;83;21480;-68
2022/01/28 03:01:44;;;;;;;32.45;18.85;;;;;;;0.08;100.00;98542.52;1716098;83;20968;-68
2022/01/28 03:04:16;;;;;;;40.00;19.55;;;;;;;0.09;100.00;98542.77;1716010;83;21220;-67
2022/01/28 03:06:39;;;;;;;35.13;19.25;;;;;;;0.10;100.00;98541.67;1715332;83;20896;-68
2022/01/28 03:09:16;;;;;;;31.93;19.05;;;;;;;0.09;100.00;98536.00;1715865;83;20928;-68
2022/01/28 03:11:44;;;;;;;32.03;17.80;;;;;;;0.10;100.00;98532.75;1715069;83;21449;-68
2022/01/28 03:19:53;;;;;;;36.53;18.80;;;;;;;0.10;100.00;98519.20;1689220;85;21003;-67
2022/01/28 03:22:17;;;;;;;38.20;17.45;;;;;;;0.08;100.00;98525.44;1655517;86;20873;-68
2022/01/28 03:24:48;;;;;;;34.23;18.17;;;;;;;0.06;100.00;98528.95;1660861;85;21012;-69
2022/01/28 03:27:20;;;;;;;26.10;16.67;;;;;;;0.04;100.00;98527.88;1695618;84;21553;-66
2022/01/28 03:29:45;;;;;;;27.62;16.00;;;;;;;0.06;100.00;98523.53;1695072;84;21152;-68
2022/01/28 03:32:14;;;;;;;27.80;16.02;;;;;;;0.05;100.00;98526.78;1695664;84;20984;-69
2022/01/28 03:34:41;;;;;;;37.23;17.00;;;;;;;0.04;100.00;98526.52;1695881;84;20985;-67
2022/01/28 03:37:08;;;;;;;27.70;16.23;;;;;;;0.05;100.00;98526.78;1695980;84;20913;-68
2022/01/28 03:39:37;;;;;;;27.93;16.10;;;;;;;0.05;100.00;98520.57;1695799;84;20921;-67
2022/01/28 03:42:06;;;;;;;35.55;16.52;;;;;;;0.05;100.00;98515.95;1696030;84;21134;-67
2022/01/28 03:44:35;;;;;;;30.57;17.42;;;;;;;0.05;100.00;98507.81;1695735;84;20945;-65
2022/01/28 03:47:02;;;;;;;28.67;16.15;;;;;;;0.05;100.00;98507.03;1695721;84;21060;-68
2022/01/28 03:49:28;;;;;;;28.32;16.35;;;;;;;0.06;100.00;98508.10;1695923;84;21418;-68
2022/01/28 03:51:55;;;;;;;27.62;16.10;;;;;;;0.05;100.00;98486.70;1695792;84;21045;-67
2022/01/28 03:54:21;;;;;;;32.95;17.82;;;;;;;0.04;100.00;98498.08;1695786;84;21818;-66
2022/01/28 03:56:50;;;;;;;27.48;15.53;;;;;;;0.03;100.00;98494.29;1695809;84;20973;-67
2022/01/28 03:59:16;;;;;;;29.20;16.57;;;;;;;0.03;100.00;98501.06;1696154;84;20983;-67
2022/01/28 04:01:45;;;;;;;29.23;14.55;;;;;;;0.02;100.00;98506.22;1695882;84;20902;-67
2022/01/28 04:12:12;;;;;;;26.65;14.58;;;;;;;0.04;100.00;98498.08;1695803;84;20937;-68
2022/01/28 04:15:00;;;;;;;24.60;13.75;;;;;;;0.05;100.00;98486.70;1695710;84;20993;-68
2022/01/28 04:17:20;;;;;;;27.27;13.88;;;;;;;0.04;100.00;98494.55;1693698;84;21040;-68
2022/01/28 04:19:49;;;;;;;23.95;13.62;;;;;;;0.05;100.00;98487.50;1695646;84;21114;-67
2022/01/28 04:22:17;;;;;;;24.27;13.93;;;;;;;0.05;100.00;98496.19;1695600;84;20966;-68
2022/01/28 04:24:45;;;;;;;24.02;12.68;;;;;;;0.05;100.00;98490.77;1695725;84;20941;-68
2022/01/28 04:27:11;;;;;;;21.93;13.08;;;;;;;0.06;100.00;98485.61;1674696;84;21005;-68
2022/01/28 04:29:38;;;;;;;20.82;12.60;;;;;;;0.06;100.00;98486.43;1695805;84;20894;-68
2022/01/28 04:32:06;;;;;;;21.00;13.13;;;;;;;0.07;100.00;98481.83;1695699;84;21231;-68
2022/01/28 04:34:33;;;;;;;24.67;13.60;;;;;;;0.07;100.00;98478.56;1695639;84;21026;-67
2022/01/28 04:39:43;;;;;;;21.45;13.18;;;;;;;0.09;100.00;98488.58;1675972;84;21975;-68
2022/01/28 04:44:56;;;;;;;26.70;12.58;;;;;;;0.10;100.00;98479.92;1696073;84;21858;-68
2022/01/28 04:47:13;;;;;;;22.30;10.95;;;;;;;0.11;100.00;98485.59;1692823;84;21009;-67
2022/01/28 04:49:52;;;;;;;21.25;11.95;;;;;;;0.11;100.00;98484.23;1695093;84;21122;-66
2022/01/28 04:52:34;;;;;;;25.82;13.08;;;;;;;0.11;100.00;98485.06;1692954;84;21292;-67
2022/01/28 04:55:05;;;;;;;21.95;12.55;;;;;;;0.14;100.00;98491.02;1692977;84;21402;-67
2022/01/28 04:57:47;;;;;;;23.32;11.65;;;;;;;0.14;100.00;98489.10;1693828;84;21224;-68
2022/01/28 05:03:43;;;;;;;20.08;12.82;;;;;;;0.16;100.00;98477.45;1695945;84;21126;-67
2022/01/28 05:15:50;;;;;;;22.65;12.20;;;;;;;0.15;100.00;98463.65;1703810;84;20945;-69
2022/01/28 05:28:39;;;;;;;18.80;11.83;;;;;;;0.14;100.00;98455.80;1703543;84;21011;-67
2022/01/28 05:31:05;;;;;;;22.02;12.63;;;;;;;0.16;100.00;98459.02;1703630;84;21552;-68
2022/01/28 05:33:34;;;;;;;20.23;12.43;;;;;;;0.17;100.00;98465.52;1703722;84;20905;-68
2022/01/28 05:36:00;;;;;;;23.38;12.88;;;;;;;0.19;100.00;98467.41;1703601;84;21153;-68
2022/01/28 05:38:27;;;;;;;25.55;12.60;;;;;;;0.21;100.00;98464.42;1703605;84;21697;-67
2022/01/28 05:40:53;;;;;;;22.55;12.18;;;;;;;0.21;100.00;98454.41;1703632;84;21012;-67
2022/01/28 05:43:20;;;;;;;21.57;13.40;;;;;;;0.22;100.00;98454.66;1703616;84;20968;-67
2022/01/28 05:45:50;;;;;;;22.35;12.93;;;;;;;0.23;100.00;98456.30;1704159;84;21013;-67
2022/01/28 05:48:17;;;;;;;22.10;13.45;;;;;;;0.25;100.00;98453.30;1703668;84;21168;-67
2022/01/28 05:50:47;;;;;;;22.85;12.18;;;;;;;0.26;100.00;98451.42;1703621;84;20984;-66
2022/01/28 05:53:15;;;;;;;21.57;12.70;;;;;;;0.27;100.00;98448.42;1703809;84;21072;-67
2022/01/28 05:55:42;;;;;;;24.32;13.13;;;;;;;0.29;100.00;98461.70;1703553;84;20944;-68
2022/01/28 05:58:09;;;;;;;19.92;12.53;;;;;;;0.31;100.00;98464.38;1703812;84;20901;-65
2022/01/28 06:00:35;;;;;;;16.85;10.53;;;;;;;0.32;100.00;98466.02;1703569;84;23416;-68
2022/01/28 06:03:01;;;;;;;19.17;11.50;;;;;;;0.34;100.00;98465.74;1703595;84;21485;-68
2022/01/28 06:05:30;;;;;;;22.42;12.68;;;;;;;0.35;100.00;98464.11;1703625;84;20962;-69
2022/01/28 06:07:57;;;;;;;24.47;12.65;;;;;;;0.36;100.00;98456.77;1704619;83;20936;-68
2022/01/28 06:10:26;;;;;;;23.80;12.28;;;;;;;0.37;100.00;98459.76;1705713;84;20948;-68
2022/01/28 06:12:53;;;;;;;21.60;12.47;;;;;;;0.38;100.00;98460.55;1705782;84;20997;-67
2022/01/28 06:15:20;;;;;;;24.57;13.50;;;;;;;0.38;100.00;98459.20;1705455;84;21612;-68
2022/01/28 06:17:46;;;;;;;19.57;11.88;;;;;;;0.38;100.00;98458.66;1705650;84;20897;-67
2022/01/28 06:20:18;;;;;;;21.55;12.60;;;;;;;0.39;100.00;98456.23;1705895;83;21513;-67
2022/01/28 06:22:48;;;;;;;20.48;12.30;;;;;;;0.40;100.00;98459.73;1705423;84;20988;-68
2022/01/28 06:25:14;;;;;;;23.00;13.05;;;;;;;0.42;100.00;98460.27;1705567;83;21044;-68
2022/01/28 06:27:41;;;;;;;23.20;13.00;;;;;;;0.42;100.00;98462.45;1705751;84;21556;-68
2022/01/28 06:30:09;;;;;;;21.77;13.45;;;;;;;0.43;100.00;98457.81;1705591;84;20977;-67
2022/01/28 06:32:39;;;;;;;25.00;12.75;;;;;;;0.44;100.00;98450.79;1705657;84;21448;-67
2022/01/28 06:35:08;;;;;;;25.85;13.15;;;;;;;0.44;100.00;98454.86;1705639;83;20862;-68
2022/01/28 06:37:39;;;;;;;23.85;13.13;;;;;;;0.46;100.00;98451.30;1705551;84;21816;-68
2022/01/28 06:40:11;;;;;;;27.42;14.90;;;;;;;0.50;100.00;98458.87;1705592;84;20897;-68
2022/01/28 06:42:37;;;;;;;25.45;13.85;;;;;;;0.51;100.00;98451.84;1705650;84;20893;-68
2022/01/28 06:45:07;;;;;;;26.48;13.78;;;;;;;0.52;100.00;98456.16;1705602;83;20877;-68
2022/01/28 06:47:37;;;;;;;27.95;15.93;;;;;;;0.54;100.00;98470.25;1705963;83;21029;-67
2022/01/28 06:50:07;;;;;;;27.60;15.68;;;;;;;0.55;100.00;98477.28;1705713;84;23026;-67
2022/01/28 06:52:33;;;;;;;27.90;15.90;;;;;;;0.56;100.00;98479.46;1705814;84;20977;-69
2022/01/28 06:55:03;;;;;;;34.25;18.48;;;;;;;0.56;100.00;98478.89;1705775;84;21799;-68
2022/01/28 06:57:30;;;;;;;29.20;17.10;;;;;;;0.57;100.00;98477.00;1705652;84;20980;-67
2022/01/28 06:59:57;;;;;;;28.40;16.40;;;;;;;0.55;100.00;98471.86;1705501;84;20924;-68
2022/01/28 07:02:23;;;;;;;28.38;16.17;;;;;;;0.56;100.00;98475.39;1705908;84;21135;-68
2022/01/28 07:04:50;;;;;;;27.75;16.35;;;;;;;0.56;100.00;98478.10;1705657;84;20917;-67
2022/01/28 07:07:17;;;;;;;28.12;17.02;;;;;;;0.57;100.00;98476.47;1705432;83;21441;-68
2022/01/28 07:09:45;;;;;;;25.60;15.70;;;;;;;0.59;100.00;98476.19;1703856;84;20945;-68
2022/01/28 07:12:13;;;;;;;28.20;14.75;;;;;;;0.61;100.00;98472.66;1703798;84;21028;-67
2022/01/28 07:14:40;;;;;;;26.42;15.63;;;;;;;0.63;100.00;98466.95;1703938;84;21257;-67
2022/01/28 07:17:10;;;;;;;37.15;17.40;;;;;;;0.65;100.00;98464.21;1703914;84;20953;-67
2022/01/28 07:19:37;;;;;;;30.10;17.98;;;;;;;0.68;100.00;98462.86;1703814;84;20869;-68
2022/01/28 07:22:04;;;;;;;27.13;16.45;;;;;;;0.71;100.00;98469.07;1704288;84;20929;-69
2022/01/28 07:24:32;;;;;;;35.68;16.70;;;;;;;0.75;100.00;98461.98;1703806;84;21023;-68
2022/01/28 07:26:58;;;;;;;27.58;15.55;;;;;;;0.75;100.00;98468.76;1703861;84;21544;-68
2022/01/28 07:29:28;;;;;;;32.85;17.05;;;;;;;0.80;100.00;98465.23;1703970;84;20842;-65
2022/01/28 07:31:53;;;;;;;23.65;14.20;;;;;;;0.82;99.97;98466.55;1703832;84;20937;-68
2022/01/28 07:34:21;;;;;;;23.50;14.05;;;;;;;0.87;99.98;98464.34;1689938;84;20948;-67
2022/01/28 07:36:50;;;;;;;28.95;14.73;;;;;;;0.93;99.87;98459.70;1703909;84;21017;-68
2022/01/28 07:39:16;;;;;;;31.17;15.53;;;;;;;0.96;99.67;98465.39;1675007;84;21196;-67
2022/01/28 07:41:43;;;;;;;24.10;13.78;;;;;;;1.01;99.45;98463.74;1703721;84;20933;-67
2022/01/28 07:44:10;;;;;;;28.62;15.40;;;;;;;1.07;99.29;98465.31;1703820;84;20933;-67
2022/01/28 07:46:38;;;;;;;24.85;13.83;;;;;;;1.09;99.06;98459.06;1703827;84;21912;-68
2022/01/28 07:49:05;;;;;;;25.20;14.13;;;;;;;1.14;98.81;98465.81;1674721;84;20976;-68
2022/01/28 07:51:32;;;;;;;24.40;13.70;;;;;;;1.15;98.33;98463.35;1703887;84;21167;-68
2022/01/28 07:54:00;;;;;;;26.68;13.25;;;;;;;1.14;98.04;98457.67;1703931;84;21410;-67
2022/01/28 07:56:27;;;;;;;28.27;13.55;;;;;;;1.13;97.95;98457.39;1703571;84;20917;-68
2022/01/28 07:58:53;;;;;;;22.35;13.95;;;;;;;1.15;97.87;98455.21;1703701;84;20940;-68
2022/01/28 08:01:21;;;;;;;18.95;12.40;;;;;;;1.18;97.56;98459.25;1703973;84;21008;-68
2022/01/28 08:03:48;;;;;;;27.35;14.93;;;;;;;1.18;97.19;98445.14;1703999;84;21863;-68
2022/01/28 08:06:14;;;;;;;22.60;13.88;;;;;;;1.20;96.97;98445.67;1703819;84;21478;-68
2022/01/28 08:08:40;;;;;;;21.27;13.40;;;;;;;1.21;96.80;98441.06;1704003;83;21044;-68
2022/01/28 08:11:06;;;;;;;26.35;14.07;;;;;;;1.22;96.55;98441.31;1703860;84;20939;-68
2022/01/28 08:13:35;;;;;;;22.37;13.05;;;;;;;1.23;96.36;98436.14;1703767;84;21508;-68
2022/01/28 08:16:04;;;;;;;21.93;12.35;;;;;;;1.24;96.09;98434.24;1676051;84;21549;-69
2022/01/28 08:18:32;;;;;;;25.23;14.10;;;;;;;1.26;95.96;98435.59;1703685;84;20972;-68
2022/01/28 08:20:58;;;;;;;22.65;13.05;;;;;;;1.29;95.79;98430.95;1703827;84;20908;-68
2022/01/28 08:23:27;;;;;;;23.18;13.28;;;;;;;1.31;95.59;98431.45;1703702;84;20924;-68
2022/01/28 08:25:55;;;;;;;26.93;14.13;;;;;;;1.33;95.45;98427.12;1675771;84;21060;-68
2022/01/28 08:28:21;;;;;;;27.30;12.73;;;;;;;1.33;95.26;98421.13;1703743;84;21147;-69
2022/01/28 08:30:48;;;;;;;22.77;12.43;;;;;;;1.35;94.82;98424.12;1704395;84;21414;-67
2022/01/28 08:33:14;;;;;;;19.00;12.60;;;;;;;1.35;94.57;98430.34;1703757;84;21005;-68
2022/01/28 08:35:50;;;;;;;22.10;12.03;;;;;;;1.36;94.04;98433.33;1703747;84;21040;-68
2022/01/28 08:38:15;;;;;;;23.27;12.75;;;;;;;1.35;93.76;98428.98;1702772;84;21013;-69
2022/01/28 08:40:41;;;;;;;25.05;14.05;;;;;;;1.34;93.76;98439.59;1703901;84;21538;-69
2022/01/28 08:43:08;;;;;;;25.52;14.13;;;;;;;1.33;93.64;98432.55;1703698;84;20893;-68
2022/01/28 08:45:34;;;;;;;25.37;14.28;;;;;;;1.31;93.53;98440.95;1703783;84;20985;-68
2022/01/28 08:48:03;;;;;;;22.50;12.80;;;;;;;1.30;93.44;98437.16;1703745;84;21039;-68
2022/01/28 08:50:34;;;;;;;21.90;12.30;;;;;;;1.28;93.45;98438.02;1703987;84;20929;-69
2022/01/28 08:53:03;;;;;;;26.40;14.05;;;;;;;1.26;93.50;98438.84;1703997;84;21097;-69
2022/01/28 08:55:30;;;;;;;23.38;13.58;;;;;;;1.24;93.59;98438.31;1703755;84;21032;-69
2022/01/28 08:57:57;;;;;;;25.30;12.88;;;;;;;1.20;93.68;98437.53;1703861;84;20961;-68
2022/01/28 09:00:26;;;;;;;25.05;13.43;;;;;;;1.20;93.81;98437.53;1703857;84;20932;-68
2022/01/28 09:02:52;;;;;;;24.92;13.30;;;;;;;1.21;93.89;98435.63;1703807;84;21017;-68
2022/01/28 09:05:18;;;;;;;26.27;13.93;;;;;;;1.24;93.92;98441.03;1703897;84;21159;-69
2022/01/28 09:07:45;;;;;;;21.95;13.05;;;;;;;1.28;93.75;98438.02;1703829;83;20944;-67
2022/01/28 09:10:18;;;;;;;24.10;14.15;;;;;;;1.29;93.71;98439.09;1705656;84;21502;-68
2022/01/28 09:12:49;;;;;;;21.37;12.20;;;;;;;1.29;93.63;98432.84;1705705;83;21157;-69
2022/01/28 09:15:15;;;;;;;22.80;12.93;;;;;;;1.29;93.53;98421.98;1705600;83;20977;-68
2022/01/28 09:17:41;;;;;;;24.05;13.35;;;;;;;1.30;93.43;98429.84;1705533;83;21220;-68
2022/01/28 09:20:10;;;;;;;25.60;13.68;;;;;;;1.31;93.48;98415.16;1705531;84;20942;-69
2022/01/28 09:22:36;;;;;;;22.07;13.85;;;;;;;1.36;93.67;98412.16;1705731;84;20996;-67
2022/01/28 09:25:04;;;;;;;18.57;13.10;;;;;;;1.46;93.66;98417.48;1705530;84;20949;-68
2022/01/28 09:27:32;;;;;;;21.85;12.55;;;;;;;1.53;93.44;98416.61;1705541;84;20999;-69
2022/01/28 09:29:58;;;;;;;19.90;12.98;;;;;;;1.57;92.88;98414.92;1705858;84;21507;-68
2022/01/28 09:32:25;;;;;;;24.60;13.35;;;;;;;1.59;92.49;98411.92;1705536;84;20941;-68
2022/01/28 09:34:52;;;;;;;23.35;13.22;;;;;;;1.56;92.24;98402.99;1705847;83;21004;-68
2022/01/28 09:37:18;;;;;;;19.90;12.00;;;;;;;1.55;92.15;98404.10;1705682;84;21473;-68
2022/01/28 09:39:45;;;;;;;21.68;14.00;;;;;;;1.54;92.04;98392.96;1705725;84;20944;-68
2022/01/28 09:42:14;;;;;;;22.27;13.48;;;;;;;1.55;91.88;98393.24;1705632;83;21151;-69
2022/01/28 09:44:43;;;;;;;23.12;14.25;;;;;;;1.56;91.98;98389.41;1705679;83;20909;-68
2022/01/28 09:47:11;;;;;;;22.48;13.88;;;;;;;1.56;91.92;98381.27;1705726;83;21469;-69
2022/01/28 09:49:40;;;;;;;22.73;12.88;;;;;;;1.57;91.87;98378.27;1705820;84;20956;-69
2022/01/28 09:52:08;;;;;;;25.68;14.83;;;;;;;1.60;91.77;98370.64;1706053;84;21457;-68
2022/01/28 09:54:35;;;;;;;32.78;16.12;;;;;;;1.63;91.81;98363.27;1705603;83;22058;-68
2022/01/28 09:57:06;;;;;;;25.72;14.47;;;;;;;1.68;91.89;98361.86;1705523;83;20996;-69
2022/01/28 09:59:36;;;;;;;27.77;14.30;;;;;;;1.75;91.78;98358.25;1705825;84;21480;-66
2022/01/28 10:02:06;;;;;;;33.83;17.27;;;;;;;1.82;91.33;98360.62;1705821;84;20965;-68
2022/01/28 10:04:32;;;;;;;27.80;15.30;;;;;;;1.85;90.95;98355.95;1705647;83;22189;-68
2022/01/28 10:06:58;;;;;;;27.98;16.17;;;;;;;1.87;90.60;98360.56;1705659;84;21209;-68
2022/01/28 10:09:26;;;;;;;25.32;14.43;;;;;;;1.84;90.23;98354.35;1704489;83;20917;-68
2022/01/28 10:11:57;;;;;;;30.95;14.75;;;;;;;1.81;90.32;98356.27;1703820;84;21031;-67
2022/01/28 10:14:26;;;;;;;27.25;14.10;;;;;;;1.78;90.38;98353.59;1704213;84;20968;-68
2022/01/28 10:16:59;;;;;;;24.75;13.00;;;;;;;1.79;90.33;98342.19;1703817;84;21068;-68
2022/01/28 10:19:40;;;;;;;25.30;15.00;;;;;;;1.79;90.35;98344.34;1704218;84;21118;-68
2022/01/28 10:22:19;;;;;;;31.50;15.03;;;;;;;1.79;90.35;98343.55;1703906;84;20886;-67
2022/01/28 10:24:46;;;;;;;26.50;14.23;;;;;;;1.79;90.35;98337.55;1703911;84;20849;-69
2022/01/28 10:27:14;;;;;;;22.73;13.53;;;;;;;1.81;90.49;98338.61;1703953;84;21004;-68
2022/01/28 10:29:43;;;;;;;24.98;13.55;;;;;;;1.85;90.36;98337.48;1703872;84;21029;-69
2022/01/28 10:32:13;;;;;;;24.40;14.30;;;;;;;1.88;90.40;98337.71;1703946;84;21162;-70
2022/01/28 10:34:47;;;;;;;31.05;14.47;;;;;;;1.90;90.23;98327.91;1704214;84;21009;-69
2022/01/28 10:37:29;;;;;;;25.05;15.40;;;;;;;1.92;90.21;98325.72;1703929;84;20982;-69
2022/01/28 10:39:59;;;;;;;29.55;14.83;;;;;;;1.93;90.18;98329.50;1704109;84;21450;-69
2022/01/28 10:42:38;;;;;;;27.52;14.87;;;;;;;1.96;90.07;98324.59;1704367;84;20991;-70
2022/01/28 10:45:12;;;;;;;29.10;16.30;;;;;;;1.97;90.00;98311.25;1703754;84;21177;-69
2022/01/28 10:47:50;;;;;;;25.75;14.93;;;;;;;1.98;90.05;98308.23;1704030;84;20975;-69
2022/01/28 10:50:37;;;;;;;26.05;13.98;;;;;;;2.02;89.93;98300.31;1704142;84;20938;-68
2022/01/28 10:53:12;;;;;;;22.80;14.35;;;;;;;2.04;89.74;98301.65;1703500;84;21501;-68
2022/01/28 10:55:44;;;;;;;31.35;14.75;;;;;;;2.06;89.44;98302.71;1703942;84;21517;-69
2022/01/28 10:58:15;;;;;;;26.48;16.05;;;;;;;2.07;89.51;98297.52;1704169;84;21826;-69
2022/01/28 11:00:53;;;;;;;29.77;14.78;;;;;;;2.11;89.42;98297.75;1703871;84;21028;-69
2022/01/28 11:03:26;;;;;;;23.42;13.90;;;;;;;2.14;89.24;98297.16;1703854;84;21019;-69
2022/01/28 11:05:52;;;;;;;19.20;12.13;;;;;;;2.17;88.77;98292.48;1703150;84;20937;-68
2022/01/28 11:08:18;;;;;;;23.32;13.32;;;;;;;2.19;88.55;98278.06;1676530;83;21077;-69
2022/01/28 11:10:45;;;;;;;24.47;13.90;;;;;;;2.24;88.60;98275.27;1716316;83;21508;-70
2022/01/28 11:13:12;;;;;;;24.95;14.07;;;;;;;2.30;88.57;98280.08;1716070;83;21493;-69
2022/01/28 11:15:40;;;;;;;25.72;14.43;;;;;;;2.36;88.17;98260.41;1716190;83;20932;-70
2022/01/28 11:18:10;;;;;;;23.42;14.00;;;;;;;2.41;87.80;98262.50;1716553;83;20869;-69
2022/01/28 11:20:51;;;;;;;27.45;13.55;;;;;;;2.47;87.67;98259.16;1716142;83;20901;-69
2022/01/28 11:23:31;;;;;;;22.17;13.03;;;;;;;2.55;86.98;98256.30;1716622;83;21142;-69
2022/01/28 11:26:40;;;;;;;21.17;11.45;;;;;;;2.60;86.36;98256.22;1716002;83;20949;-68
2022/01/28 11:29:19;;;;;;;21.85;13.62;;;;;;;2.65;86.27;98255.31;1716343;83;20932;-67
2022/01/28 11:31:52;;;;;;;18.23;11.08;;;;;;;2.74;86.09;98257.62;1716108;83;20968;-68
2022/01/28 11:34:30;;;;;;;22.00;11.93;;;;;;;2.77;85.35;98258.38;1716243;83;21016;-67
2022/01/28 11:37:16;;;;;;;17.32;11.22;;;;;;;2.76;84.96;98255.38;1716080;83;21556;-69
2022/01/28 11:39:50;;;;;;;20.00;12.25;;;;;;;2.73;84.71;98255.98;1716073;83;20983;-67
2022/01/28 11:42:27;;;;;;;18.00;11.03;;;;;;;2.72;84.32;98254.92;1716303;83;20940;-69
2022/01/28 11:44:59;;;;;;;21.42;11.70;;;;;;;2.73;83.99;98252.48;1716418;83;21505;-68
2022/01/28 11:47:30;;;;;;;18.42;11.22;;;;;;;2.73;84.04;98260.64;1716199;83;20861;-69
2022/01/28 11:50:08;;;;;;;17.20;10.48;;;;;;;2.91;84.15;98250.79;1716145;82;21035;-69
2022/01/28 11:52:53;;;;;;;17.85;10.75;;;;;;;3.03;83.89;98261.19;1716030;83;20945;-68
2022/01/28 11:55:28;;;;;;;18.87;9.73;;;;;;;3.08;82.91;98260.28;1716394;83;20987;-68
2022/01/28 11:57:57;;;;;;;18.00;10.15;;;;;;;3.01;81.38;98252.52;1716056;83;20897;-68
2022/01/28 12:00:39;;;;;;;26.12;8.30;;;;;;;2.91;81.34;98247.52;1716318;83;21019;-68
2022/01/28 12:03:26;;;;;;;15.60;9.03;;;;;;;2.83;81.11;98244.69;1721283;83;21217;-69
2022/01/28 12:05:59;;;;;;;17.82;9.45;;;;;;;2.75;81.06;98252.42;1715931;83;20976;-67
2022/01/28 12:08:30;;;;;;;20.23;9.98;;;;;;;2.70;81.43;98242.17;1716098;83;21418;-67
2022/01/28 12:11:01;;;;;;;17.15;9.78;;;;;;;2.70;81.61;98243.53;1704117;83;20905;-68
2022/01/28 12:13:39;;;;;;;14.13;9.08;;;;;;;2.68;81.41;98241.92;1704032;84;20893;-68
2022/01/28 12:18:53;;;;;;;18.40;10.13;;;;;;;2.62;81.25;98241.77;1703827;84;21365;-68
2022/01/28 12:21:22;;;;;;;;;;;;;;;2.58;81.40;98244.81;1706430;84;20962;-69
2022/01/28 12:23:49;;;;;;;15.53;8.10;;;;;;;2.55;81.50;98239.98;1704176;83;20102;-68
2022/01/28 12:26:19;;;;;;;18.10;9.00;;;;;;;2.53;81.51;98229.95;1703824;84;20940;-68
2022/01/28 12:28:54;;;;;;;16.93;8.88;;;;;;;2.50;81.50;98234.63;1703728;84;21473;-69
2022/01/28 12:31:24;;;;;;;19.15;9.58;;;;;;;2.49;81.47;98235.74;1704019;84;20933;-67
2022/01/28 12:34:01;;;;;;;16.32;9.75;;;;;;;2.49;81.37;98243.90;1704184;84;20988;-68
2022/01/28 12:36:38;;;;;;;15.00;8.65;;;;;;;2.48;80.92;98243.62;1703869;84;20949;-68
2022/01/28 12:39:12;;;;;;;15.70;8.58;;;;;;;2.46;80.89;98243.92;1704298;84;20980;-68
2022/01/28 12:41:51;;;;;;;14.65;8.50;;;;;;;2.45;80.68;98238.78;1703832;84;21541;-68
2022/01/28 12:44:14;;;;;;;15.10;9.30;;;;;;;2.44;80.52;98236.61;1703107;84;20985;-68
2022/01/28 12:46:43;;;;;;;20.25;9.35;;;;;;;2.45;80.53;98234.70;1703937;84;21052;-69
2022/01/28 12:49:09;;;;;;;15.00;8.15;;;;;;;2.43;80.58;98233.11;1667548;84;20956;-69
2022/01/28 12:51:38;;;;;;;13.93;7.50;;;;;;;2.43;80.34;98235.01;1703881;84;21009;-68
2022/01/28 12:54:06;;;;;;;24.70;11.63;;;;;;;2.42;80.33;98230.69;1704253;84;21117;-68